Карточка аэропорта USRR

Внимание!
Информация на этой странице в стадии наполнения.
Если вы не увидели какой-то информации, или заметили неточность - пожалуйста сообщите нам!
Спасибо!
Команда RU-STAFF
Название аэропортаСургут
Название аэропорта (англ.)Surgut
Превышение196 ft. (59.7 m.)
Координаты61°20.502', 73°24.168'
Высота перехода700m
Эшелон переходаQFE>=742mm:FL040; QFE<=742mm:FL050
Коды ответчика5570-5577
Зона ОрВДТюмень РПИ (USTV)
Данные METARUSRR 140330Z 31007MPS 9999 BKN024 M07/M11 Q1001 R25/CLRD60 NOSIG RMK QFE746
Проноз погоды (TAF)USRR 140155Z 1403/1503 31007G14MPS 9999 FEW011 SCT020 TEMPO 1403/1415 2100 -SHSN SCT006 BKN016CB
NOTAMshow/hide NOTAM
AWOS   TABLE

Информация о ВПП

ВПП Длина ВПП (м.) Покрытие Курс ВПП Частота ILS
072780Асфальтобетон73110.5
252780Асфальтобетон253109.1

Диспетчерские позиции

Позывной Наименование органа УВД Частота
USRR_APPСургут-Подход129.300
USRR_R_APPСургут - Круг120.300
USRR_TWRСургут-Вышка120.800



Спутниковое изображение